sensor_id;sensor_type;location;lat;lon;timestamp;P1;durP1;ratioP1;P2;durP2;ratioP2
62707;SDS011;48769;51.624;5.886;2022-08-19T00:00:04;35.55;;;31.17;;
62707;SDS011;48769;51.624;5.886;2022-08-19T00:02:39;34.00;;;30.55;;
62707;SDS011;48769;51.624;5.886;2022-08-19T00:05:06;35.42;;;31.73;;
62707;SDS011;48769;51.624;5.886;2022-08-19T00:07:32;35.08;;;31.42;;
62707;SDS011;48769;51.624;5.886;2022-08-19T00:09:58;36.75;;;33.03;;
62707;SDS011;48769;51.624;5.886;2022-08-19T00:12:23;34.97;;;31.33;;
62707;SDS011;48769;51.624;5.886;2022-08-19T00:14:48;33.30;;;30.13;;
62707;SDS011;48769;51.624;5.886;2022-08-19T00:17:14;33.92;;;30.55;;
62707;SDS011;48769;51.624;5.886;2022-08-19T00:19:39;33.78;;;30.30;;
62707;SDS011;48769;51.624;5.886;2022-08-19T00:22:05;33.22;;;29.75;;
62707;SDS011;48769;51.624;5.886;2022-08-19T00:24:33;33.22;;;29.83;;
62707;SDS011;48769;51.624;5.886;2022-08-19T00:26:59;33.28;;;29.95;;
62707;SDS011;48769;51.624;5.886;2022-08-19T00:29:26;34.15;;;30.83;;
62707;SDS011;48769;51.624;5.886;2022-08-19T00:31:52;35.30;;;31.90;;
62707;SDS011;48769;51.624;5.886;2022-08-19T00:34:21;38.20;;;34.03;;
62707;SDS011;48769;51.624;5.886;2022-08-19T00:36:47;38.42;;;34.42;;
62707;SDS011;48769;51.624;5.886;2022-08-19T00:39:14;37.83;;;33.97;;
62707;SDS011;48769;51.624;5.886;2022-08-19T00:41:41;39.92;;;35.60;;
62707;SDS011;48769;51.624;5.886;2022-08-19T00:44:11;38.53;;;34.53;;
62707;SDS011;48769;51.624;5.886;2022-08-19T00:46:39;38.00;;;34.00;;
62707;SDS011;48769;51.624;5.886;2022-08-19T00:49:08;41.10;;;36.60;;
62707;SDS011;48769;51.624;5.886;2022-08-19T00:51:39;38.33;;;34.47;;
62707;SDS011;48769;51.624;5.886;2022-08-19T00:54:07;40.40;;;36.03;;
62707;SDS011;48769;51.624;5.886;2022-08-19T00:56:34;41.05;;;36.65;;
62707;SDS011;48769;51.624;5.886;2022-08-19T00:59:00;38.35;;;34.45;;
62707;SDS011;48769;51.624;5.886;2022-08-19T01:01:27;38.17;;;33.97;;
62707;SDS011;48769;51.624;5.886;2022-08-19T01:03:52;37.90;;;33.72;;
62707;SDS011;48769;51.624;5.886;2022-08-19T01:06:18;36.58;;;32.88;;
62707;SDS011;48769;51.624;5.886;2022-08-19T01:08:43;40.85;;;36.53;;
62707;SDS011;48769;51.624;5.886;2022-08-19T01:11:09;36.38;;;32.58;;
62707;SDS011;48769;51.624;5.886;2022-08-19T01:13:37;37.97;;;33.22;;
62707;SDS011;48769;51.624;5.886;2022-08-19T01:16:04;35.80;;;32.03;;
62707;SDS011;48769;51.624;5.886;2022-08-19T01:18:35;37.80;;;34.00;;
62707;SDS011;48769;51.624;5.886;2022-08-19T01:21:05;39.05;;;31.63;;
62707;SDS011;48769;51.624;5.886;2022-08-19T01:23:35;36.88;;;32.88;;
62707;SDS011;48769;51.624;5.886;2022-08-19T01:26:22;44.05;;;39.25;;
62707;SDS011;48769;51.624;5.886;2022-08-19T01:28:50;45.42;;;40.03;;
62707;SDS011;48769;51.624;5.886;2022-08-19T01:31:19;46.05;;;41.03;;
62707;SDS011;48769;51.624;5.886;2022-08-19T01:33:48;47.22;;;41.90;;
62707;SDS011;48769;51.624;5.886;2022-08-19T01:36:16;47.38;;;41.00;;
62707;SDS011;48769;51.624;5.886;2022-08-19T01:38:48;45.13;;;40.20;;
62707;SDS011;48769;51.624;5.886;2022-08-19T01:41:14;46.45;;;41.55;;
62707;SDS011;48769;51.624;5.886;2022-08-19T01:43:42;45.05;;;40.30;;
62707;SDS011;48769;51.624;5.886;2022-08-19T01:46:07;44.55;;;40.08;;
62707;SDS011;48769;51.624;5.886;2022-08-19T01:48:34;42.75;;;38.30;;
62707;SDS011;48769;51.624;5.886;2022-08-19T01:51:04;39.08;;;34.47;;
62707;SDS011;48769;51.624;5.886;2022-08-19T01:53:29;39.47;;;35.30;;
62707;SDS011;48769;51.624;5.886;2022-08-19T01:55:55;43.65;;;38.83;;
62707;SDS011;48769;51.624;5.886;2022-08-19T01:58:23;47.85;;;42.85;;
62707;SDS011;48769;51.624;5.886;2022-08-19T02:00:52;50.35;;;44.97;;
62707;SDS011;48769;51.624;5.886;2022-08-19T02:03:17;51.63;;;44.22;;
62707;SDS011;48769;51.624;5.886;2022-08-19T02:05:43;39.83;;;35.72;;
62707;SDS011;48769;51.624;5.886;2022-08-19T02:08:10;41.00;;;36.70;;
62707;SDS011;48769;51.624;5.886;2022-08-19T02:10:43;41.67;;;37.17;;
62707;SDS011;48769;51.624;5.886;2022-08-19T02:13:09;44.08;;;39.42;;
62707;SDS011;48769;51.624;5.886;2022-08-19T02:15:36;46.75;;;39.45;;
62707;SDS011;48769;51.624;5.886;2022-08-19T02:18:01;44.97;;;39.53;;
62707;SDS011;48769;51.624;5.886;2022-08-19T02:20:26;48.45;;;43.00;;
62707;SDS011;48769;51.624;5.886;2022-08-19T02:22:52;51.78;;;44.72;;
62707;SDS011;48769;51.624;5.886;2022-08-19T02:25:17;50.72;;;45.40;;
62707;SDS011;48769;51.624;5.886;2022-08-19T02:27:42;55.83;;;47.38;;
62707;SDS011;48769;51.624;5.886;2022-08-19T02:30:10;54.35;;;47.65;;
62707;SDS011;48769;51.624;5.886;2022-08-19T02:32:37;52.95;;;46.10;;
62707;SDS011;48769;51.624;5.886;2022-08-19T02:35:03;47.47;;;42.40;;
62707;SDS011;48769;51.624;5.886;2022-08-19T02:37:29;49.38;;;42.92;;
62707;SDS011;48769;51.624;5.886;2022-08-19T02:40:13;50.05;;;42.05;;
62707;SDS011;48769;51.624;5.886;2022-08-19T02:42:40;51.60;;;45.47;;
62707;SDS011;48769;51.624;5.886;2022-08-19T02:45:06;54.17;;;47.67;;
62707;SDS011;48769;51.624;5.886;2022-08-19T02:47:32;49.80;;;44.30;;
62707;SDS011;48769;51.624;5.886;2022-08-19T02:50:00;53.10;;;44.83;;
62707;SDS011;48769;51.624;5.886;2022-08-19T02:52:26;45.22;;;39.83;;
62707;SDS011;48769;51.624;5.886;2022-08-19T02:54:52;47.28;;;39.53;;
62707;SDS011;48769;51.624;5.886;2022-08-19T02:57:17;42.78;;;38.15;;
62707;SDS011;48769;51.624;5.886;2022-08-19T02:59:43;44.67;;;39.88;;
62707;SDS011;48769;51.624;5.886;2022-08-19T03:02:08;47.47;;;42.47;;
62707;SDS011;48769;51.624;5.886;2022-08-19T03:04:33;51.03;;;45.40;;
62707;SDS011;48769;51.624;5.886;2022-08-19T03:06:59;52.85;;;46.67;;
62707;SDS011;48769;51.624;5.886;2022-08-19T03:09:24;55.55;;;46.50;;
62707;SDS011;48769;51.624;5.886;2022-08-19T03:11:49;51.95;;;46.22;;
62707;SDS011;48769;51.624;5.886;2022-08-19T03:14:15;57.15;;;49.00;;
62707;SDS011;48769;51.624;5.886;2022-08-19T03:16:46;53.78;;;44.35;;
62707;SDS011;48769;51.624;5.886;2022-08-19T03:19:15;58.85;;;48.75;;
62707;SDS011;48769;51.624;5.886;2022-08-19T03:21:42;56.25;;;46.88;;
62707;SDS011;48769;51.624;5.886;2022-08-19T03:24:09;58.72;;;49.72;;
62707;SDS011;48769;51.624;5.886;2022-08-19T03:26:43;65.90;;;52.95;;
62707;SDS011;48769;51.624;5.886;2022-08-19T03:29:10;63.40;;;54.53;;
62707;SDS011;48769;51.624;5.886;2022-08-19T03:31:36;71.63;;;57.15;;
62707;SDS011;48769;51.624;5.886;2022-08-19T03:34:03;74.03;;;60.40;;
62707;SDS011;48769;51.624;5.886;2022-08-19T03:36:28;79.20;;;59.20;;
62707;SDS011;48769;51.624;5.886;2022-08-19T03:38:58;71.68;;;57.88;;
62707;SDS011;48769;51.624;5.886;2022-08-19T03:41:25;72.18;;;57.63;;
62707;SDS011;48769;51.624;5.886;2022-08-19T03:43:53;79.00;;;61.40;;
62707;SDS011;48769;51.624;5.886;2022-08-19T03:46:20;73.55;;;57.28;;
62707;SDS011;48769;51.624;5.886;2022-08-19T03:48:47;74.65;;;58.33;;
62707;SDS011;48769;51.624;5.886;2022-08-19T03:51:28;73.38;;;58.20;;
62707;SDS011;48769;51.624;5.886;2022-08-19T03:53:56;70.00;;;58.20;;
62707;SDS011;48769;51.624;5.886;2022-08-19T03:56:22;74.22;;;59.22;;
62707;SDS011;48769;51.624;5.886;2022-08-19T03:58:50;74.03;;;56.72;;
62707;SDS011;48769;51.624;5.886;2022-08-19T04:01:16;72.50;;;56.60;;
62707;SDS011;48769;51.624;5.886;2022-08-19T04:03:44;75.82;;;58.58;;
62707;SDS011;48769;51.624;5.886;2022-08-19T04:08:45;75.45;;;59.65;;
62707;SDS011;48769;51.624;5.886;2022-08-19T04:11:12;74.55;;;57.88;;
62707;SDS011;48769;51.624;5.886;2022-08-19T04:13:40;74.68;;;55.05;;
62707;SDS011;48769;51.624;5.886;2022-08-19T04:16:06;74.32;;;55.40;;
62707;SDS011;48769;51.624;5.886;2022-08-19T04:18:34;72.70;;;54.60;;
62707;SDS011;48769;51.624;5.886;2022-08-19T04:21:00;72.47;;;54.97;;
62707;SDS011;48769;51.624;5.886;2022-08-19T04:23:25;68.40;;;51.70;;
62707;SDS011;48769;51.624;5.886;2022-08-19T04:25:53;75.43;;;54.25;;
62707;SDS011;48769;51.624;5.886;2022-08-19T04:28:19;70.95;;;51.35;;
62707;SDS011;48769;51.624;5.886;2022-08-19T04:30:46;75.22;;;53.58;;
62707;SDS011;48769;51.624;5.886;2022-08-19T04:33:13;78.88;;;55.42;;
62707;SDS011;48769;51.624;5.886;2022-08-19T04:35:41;78.13;;;54.47;;
62707;SDS011;48769;51.624;5.886;2022-08-19T04:38:10;84.10;;;54.17;;
62707;SDS011;48769;51.624;5.886;2022-08-19T04:40:40;74.97;;;52.60;;
62707;SDS011;48769;51.624;5.886;2022-08-19T04:43:26;74.35;;;52.35;;
62707;SDS011;48769;51.624;5.886;2022-08-19T04:45:52;78.13;;;52.90;;
62707;SDS011;48769;51.624;5.886;2022-08-19T04:48:17;80.03;;;54.63;;
62707;SDS011;48769;51.624;5.886;2022-08-19T04:50:50;78.25;;;53.85;;
62707;SDS011;48769;51.624;5.886;2022-08-19T04:53:25;74.63;;;52.17;;
62707;SDS011;48769;51.624;5.886;2022-08-19T04:55:53;69.95;;;50.92;;
62707;SDS011;48769;51.624;5.886;2022-08-19T04:58:23;68.60;;;49.30;;
62707;SDS011;48769;51.624;5.886;2022-08-19T05:00:50;76.82;;;52.42;;
62707;SDS011;48769;51.624;5.886;2022-08-19T05:03:15;73.75;;;50.28;;
62707;SDS011;48769;51.624;5.886;2022-08-19T05:05:42;73.45;;;50.75;;
62707;SDS011;48769;51.624;5.886;2022-08-19T05:08:09;79.85;;;53.33;;
62707;SDS011;48769;51.624;5.886;2022-08-19T05:10:36;80.35;;;54.13;;
62707;SDS011;48769;51.624;5.886;2022-08-19T05:13:04;81.65;;;53.55;;
62707;SDS011;48769;51.624;5.886;2022-08-19T05:15:30;81.40;;;53.92;;
62707;SDS011;48769;51.624;5.886;2022-08-19T05:17:56;85.45;;;52.95;;
62707;SDS011;48769;51.624;5.886;2022-08-19T05:20:40;83.28;;;54.40;;
62707;SDS011;48769;51.624;5.886;2022-08-19T05:23:24;81.13;;;55.58;;
62707;SDS011;48769;51.624;5.886;2022-08-19T05:25:50;74.15;;;52.25;;
62707;SDS011;48769;51.624;5.886;2022-08-19T05:28:17;77.93;;;52.75;;
62707;SDS011;48769;51.624;5.886;2022-08-19T05:30:44;77.38;;;52.22;;
62707;SDS011;48769;51.624;5.886;2022-08-19T05:33:10;77.38;;;51.72;;
62707;SDS011;48769;51.624;5.886;2022-08-19T05:35:36;80.45;;;53.88;;
62707;SDS011;48769;51.624;5.886;2022-08-19T05:38:03;81.40;;;54.25;;
62707;SDS011;48769;51.624;5.886;2022-08-19T05:40:28;79.43;;;54.17;;
62707;SDS011;48769;51.624;5.886;2022-08-19T05:42:54;84.35;;;57.03;;
62707;SDS011;48769;51.624;5.886;2022-08-19T05:45:19;77.68;;;54.20;;
62707;SDS011;48769;51.624;5.886;2022-08-19T05:47:46;68.90;;;51.30;;
62707;SDS011;48769;51.624;5.886;2022-08-19T05:50:11;67.85;;;51.42;;
62707;SDS011;48769;51.624;5.886;2022-08-19T05:52:37;61.95;;;48.05;;
62707;SDS011;48769;51.624;5.886;2022-08-19T05:55:03;66.65;;;49.85;;
62707;SDS011;48769;51.624;5.886;2022-08-19T05:57:28;69.10;;;50.30;;
62707;SDS011;48769;51.624;5.886;2022-08-19T05:59:55;71.65;;;53.40;;
62707;SDS011;48769;51.624;5.886;2022-08-19T06:02:21;72.40;;;49.58;;
62707;SDS011;48769;51.624;5.886;2022-08-19T06:04:47;78.40;;;54.05;;
62707;SDS011;48769;51.624;5.886;2022-08-19T06:07:12;75.80;;;54.60;;
62707;SDS011;48769;51.624;5.886;2022-08-19T06:09:38;77.18;;;55.38;;
62707;SDS011;48769;51.624;5.886;2022-08-19T06:12:05;82.20;;;57.78;;
62707;SDS011;48769;51.624;5.886;2022-08-19T06:14:32;83.57;;;59.13;;
62707;SDS011;48769;51.624;5.886;2022-08-19T06:16:59;89.05;;;60.03;;
62707;SDS011;48769;51.624;5.886;2022-08-19T06:19:27;96.32;;;63.72;;
62707;SDS011;48769;51.624;5.886;2022-08-19T06:21:56;99.90;;;68.10;;
62707;SDS011;48769;51.624;5.886;2022-08-19T06:24:24;89.70;;;63.08;;
62707;SDS011;48769;51.624;5.886;2022-08-19T06:26:52;93.20;;;62.88;;
62707;SDS011;48769;51.624;5.886;2022-08-19T06:29:20;92.97;;;66.57;;
62707;SDS011;48769;51.624;5.886;2022-08-19T06:31:51;96.28;;;66.18;;
62707;SDS011;48769;51.624;5.886;2022-08-19T06:34:21;101.30;;;69.15;;
62707;SDS011;48769;51.624;5.886;2022-08-19T06:36:47;107.05;;;69.47;;
62707;SDS011;48769;51.624;5.886;2022-08-19T06:39:16;91.13;;;66.60;;
62707;SDS011;48769;51.624;5.886;2022-08-19T06:41:48;93.18;;;63.92;;
62707;SDS011;48769;51.624;5.886;2022-08-19T06:44:15;90.88;;;63.03;;
62707;SDS011;48769;51.624;5.886;2022-08-19T06:46:42;93.90;;;64.15;;
62707;SDS011;48769;51.624;5.886;2022-08-19T06:49:07;89.00;;;62.05;;
62707;SDS011;48769;51.624;5.886;2022-08-19T06:51:38;96.22;;;64.30;;
62707;SDS011;48769;51.624;5.886;2022-08-19T06:54:08;94.22;;;59.85;;
62707;SDS011;48769;51.624;5.886;2022-08-19T06:56:34;93.03;;;62.08;;
62707;SDS011;48769;51.624;5.886;2022-08-19T06:59:02;82.32;;;58.20;;
62707;SDS011;48769;51.624;5.886;2022-08-19T07:01:37;82.57;;;59.70;;
62707;SDS011;48769;51.624;5.886;2022-08-19T07:04:08;86.13;;;57.97;;
62707;SDS011;48769;51.624;5.886;2022-08-19T07:06:34;88.70;;;57.10;;
62707;SDS011;48769;51.624;5.886;2022-08-19T07:09:00;83.22;;;54.58;;
62707;SDS011;48769;51.624;5.886;2022-08-19T07:11:27;85.82;;;57.05;;
62707;SDS011;48769;51.624;5.886;2022-08-19T07:13:52;80.78;;;55.38;;
62707;SDS011;48769;51.624;5.886;2022-08-19T07:16:18;78.55;;;55.45;;
62707;SDS011;48769;51.624;5.886;2022-08-19T07:18:45;74.88;;;53.28;;
62707;SDS011;48769;51.624;5.886;2022-08-19T07:21:16;73.65;;;53.80;;
62707;SDS011;48769;51.624;5.886;2022-08-19T07:23:44;80.25;;;53.25;;
62707;SDS011;48769;51.624;5.886;2022-08-19T07:26:12;76.57;;;53.10;;
62707;SDS011;48769;51.624;5.886;2022-08-19T07:28:44;77.25;;;52.45;;
62707;SDS011;48769;51.624;5.886;2022-08-19T07:31:11;72.85;;;51.88;;
62707;SDS011;48769;51.624;5.886;2022-08-19T07:33:38;73.55;;;51.13;;
62707;SDS011;48769;51.624;5.886;2022-08-19T07:36:05;73.20;;;50.60;;
62707;SDS011;48769;51.624;5.886;2022-08-19T07:38:33;78.97;;;52.17;;
62707;SDS011;48769;51.624;5.886;2022-08-19T07:40:59;76.55;;;51.95;;
62707;SDS011;48769;51.624;5.886;2022-08-19T07:43:25;63.47;;;47.28;;
62707;SDS011;48769;51.624;5.886;2022-08-19T07:45:52;65.07;;;46.63;;
62707;SDS011;48769;51.624;5.886;2022-08-19T07:48:21;67.03;;;46.50;;
62707;SDS011;48769;51.624;5.886;2022-08-19T07:50:49;64.97;;;46.80;;
62707;SDS011;48769;51.624;5.886;2022-08-19T07:53:15;69.22;;;48.00;;
62707;SDS011;48769;51.624;5.886;2022-08-19T07:55:40;66.50;;;45.33;;
62707;SDS011;48769;51.624;5.886;2022-08-19T07:58:06;61.63;;;42.67;;
62707;SDS011;48769;51.624;5.886;2022-08-19T08:00:31;60.20;;;42.67;;
62707;SDS011;48769;51.624;5.886;2022-08-19T08:02:57;63.60;;;42.15;;
62707;SDS011;48769;51.624;5.886;2022-08-19T08:05:23;59.40;;;42.45;;
62707;SDS011;48769;51.624;5.886;2022-08-19T08:08:07;56.95;;;40.92;;
62707;SDS011;48769;51.624;5.886;2022-08-19T08:10:51;53.83;;;38.28;;
62707;SDS011;48769;51.624;5.886;2022-08-19T08:13:16;56.13;;;38.10;;
62707;SDS011;48769;51.624;5.886;2022-08-19T08:15:41;55.97;;;37.45;;
62707;SDS011;48769;51.624;5.886;2022-08-19T08:18:10;52.75;;;39.30;;
62707;SDS011;48769;51.624;5.886;2022-08-19T08:20:36;58.38;;;39.95;;
62707;SDS011;48769;51.624;5.886;2022-08-19T08:23:03;52.80;;;36.08;;
62707;SDS011;48769;51.624;5.886;2022-08-19T08:25:47;45.13;;;33.70;;
62707;SDS011;48769;51.624;5.886;2022-08-19T08:28:14;48.70;;;35.28;;
62707;SDS011;48769;51.624;5.886;2022-08-19T08:30:40;46.28;;;35.80;;
62707;SDS011;48769;51.624;5.886;2022-08-19T08:33:07;51.08;;;36.55;;
62707;SDS011;48769;51.624;5.886;2022-08-19T08:35:33;50.63;;;36.95;;
62707;SDS011;48769;51.624;5.886;2022-08-19T08:37:58;48.80;;;35.72;;
62707;SDS011;48769;51.624;5.886;2022-08-19T08:40:29;50.75;;;33.67;;
62707;SDS011;48769;51.624;5.886;2022-08-19T08:43:03;45.70;;;32.75;;
62707;SDS011;48769;51.624;5.886;2022-08-19T08:45:32;43.15;;;32.35;;
62707;SDS011;48769;51.624;5.886;2022-08-19T08:48:02;44.25;;;31.35;;
62707;SDS011;48769;51.624;5.886;2022-08-19T08:50:36;40.35;;;29.42;;
62707;SDS011;48769;51.624;5.886;2022-08-19T08:53:07;36.80;;;24.30;;
62707;SDS011;48769;51.624;5.886;2022-08-19T08:55:35;40.60;;;26.55;;
62707;SDS011;48769;51.624;5.886;2022-08-19T08:58:12;39.17;;;27.70;;
62707;SDS011;48769;51.624;5.886;2022-08-19T09:00:43;38.25;;;26.33;;
62707;SDS011;48769;51.624;5.886;2022-08-19T09:03:18;36.90;;;25.85;;
62707;SDS011;48769;51.624;5.886;2022-08-19T09:08:49;33.22;;;23.23;;
62707;SDS011;48769;51.624;5.886;2022-08-19T09:11:35;28.52;;;21.20;;
62707;SDS011;48769;51.624;5.886;2022-08-19T09:16:57;30.10;;;21.50;;
62707;SDS011;48769;51.624;5.886;2022-08-19T09:19:22;30.45;;;18.90;;
62707;SDS011;48769;51.624;5.886;2022-08-19T09:21:48;27.88;;;19.98;;
62707;SDS011;48769;51.624;5.886;2022-08-19T09:24:14;24.55;;;19.52;;
62707;SDS011;48769;51.624;5.886;2022-08-19T09:26:39;26.23;;;19.15;;
62707;SDS011;48769;51.624;5.886;2022-08-19T09:29:05;31.40;;;22.50;;
62707;SDS011;48769;51.624;5.886;2022-08-19T09:31:30;30.00;;;21.80;;
62707;SDS011;48769;51.624;5.886;2022-08-19T09:33:57;21.80;;;16.10;;
62707;SDS011;48769;51.624;5.886;2022-08-19T09:36:24;23.67;;;17.73;;
62707;SDS011;48769;51.624;5.886;2022-08-19T09:38:52;24.02;;;19.63;;
62707;SDS011;48769;51.624;5.886;2022-08-19T09:41:19;26.67;;;20.00;;
62707;SDS011;48769;51.624;5.886;2022-08-19T09:43:48;34.75;;;21.90;;
62707;SDS011;48769;51.624;5.886;2022-08-19T09:46:17;25.38;;;20.85;;
62707;SDS011;48769;51.624;5.886;2022-08-19T09:48:44;25.88;;;20.65;;
62707;SDS011;48769;51.624;5.886;2022-08-19T09:51:13;26.75;;;20.88;;
62707;SDS011;48769;51.624;5.886;2022-08-19T09:53:41;23.13;;;20.52;;
62707;SDS011;48769;51.624;5.886;2022-08-19T09:56:08;27.45;;;21.02;;
62707;SDS011;48769;51.624;5.886;2022-08-19T09:58:33;27.70;;;22.70;;
62707;SDS011;48769;51.624;5.886;2022-08-19T10:01:00;34.97;;;26.08;;
62707;SDS011;48769;51.624;5.886;2022-08-19T10:03:27;33.00;;;28.23;;
62707;SDS011;48769;51.624;5.886;2022-08-19T10:05:54;31.48;;;26.73;;
62707;SDS011;48769;51.624;5.886;2022-08-19T10:08:23;30.30;;;25.38;;
62707;SDS011;48769;51.624;5.886;2022-08-19T10:10:50;37.85;;;26.75;;
62707;SDS011;48769;51.624;5.886;2022-08-19T10:13:20;30.17;;;25.40;;
62707;SDS011;48769;51.624;5.886;2022-08-19T10:15:51;28.20;;;25.20;;
62707;SDS011;48769;51.624;5.886;2022-08-19T10:18:19;31.38;;;27.88;;
62707;SDS011;48769;51.624;5.886;2022-08-19T10:20:46;51.78;;;42.53;;
62707;SDS011;48769;51.624;5.886;2022-08-19T10:23:14;47.95;;;41.28;;
62707;SDS011;48769;51.624;5.886;2022-08-19T10:25:40;45.60;;;39.40;;
62707;SDS011;48769;51.624;5.886;2022-08-19T10:28:06;51.90;;;42.80;;
62707;SDS011;48769;51.624;5.886;2022-08-19T10:30:32;50.53;;;43.60;;
62707;SDS011;48769;51.624;5.886;2022-08-19T10:32:58;54.40;;;41.67;;
62707;SDS011;48769;51.624;5.886;2022-08-19T10:35:24;46.97;;;38.92;;
62707;SDS011;48769;51.624;5.886;2022-08-19T10:37:54;45.22;;;38.08;;
62707;SDS011;48769;51.624;5.886;2022-08-19T10:40:24;44.88;;;36.80;;
62707;SDS011;48769;51.624;5.886;2022-08-19T10:42:51;41.63;;;34.88;;
62707;SDS011;48769;51.624;5.886;2022-08-19T10:45:17;41.65;;;35.22;;
62707;SDS011;48769;51.624;5.886;2022-08-19T10:47:43;43.22;;;35.03;;
62707;SDS011;48769;51.624;5.886;2022-08-19T10:50:08;39.97;;;33.33;;
62707;SDS011;48769;51.624;5.886;2022-08-19T10:52:53;36.20;;;30.65;;
62707;SDS011;48769;51.624;5.886;2022-08-19T10:55:19;36.28;;;31.65;;
62707;SDS011;48769;51.624;5.886;2022-08-19T10:58:15;37.75;;;32.55;;
62707;SDS011;48769;51.624;5.886;2022-08-19T11:00:51;41.45;;;32.35;;
62707;SDS011;48769;51.624;5.886;2022-08-19T11:03:18;39.70;;;31.50;;
62707;SDS011;48769;51.624;5.886;2022-08-19T11:05:43;37.25;;;31.65;;
62707;SDS011;48769;51.624;5.886;2022-08-19T11:08:09;40.58;;;30.02;;
62707;SDS011;48769;51.624;5.886;2022-08-19T11:10:36;39.55;;;32.70;;
62707;SDS011;48769;51.624;5.886;2022-08-19T11:13:02;39.55;;;33.90;;
62707;SDS011;48769;51.624;5.886;2022-08-19T11:15:27;40.15;;;33.92;;
62707;SDS011;48769;51.624;5.886;2022-08-19T11:17:53;43.70;;;36.03;;
62707;SDS011;48769;51.624;5.886;2022-08-19T11:20:19;40.90;;;32.95;;
62707;SDS011;48769;51.624;5.886;2022-08-19T11:22:45;44.13;;;35.08;;
62707;SDS011;48769;51.624;5.886;2022-08-19T11:25:10;43.17;;;31.83;;
62707;SDS011;48769;51.624;5.886;2022-08-19T11:27:39;40.88;;;30.95;;
62707;SDS011;48769;51.624;5.886;2022-08-19T11:30:07;43.72;;;33.22;;
62707;SDS011;48769;51.624;5.886;2022-08-19T11:32:33;41.13;;;34.42;;
62707;SDS011;48769;51.624;5.886;2022-08-19T11:34:59;43.65;;;35.80;;
62707;SDS011;48769;51.624;5.886;2022-08-19T11:37:24;42.75;;;35.67;;
62707;SDS011;48769;51.624;5.886;2022-08-19T11:39:49;47.97;;;36.53;;
62707;SDS011;48769;51.624;5.886;2022-08-19T11:42:15;46.05;;;36.30;;
62707;SDS011;48769;51.624;5.886;2022-08-19T11:45:00;52.85;;;38.53;;
62707;SDS011;48769;51.624;5.886;2022-08-19T11:47:27;42.78;;;34.75;;
62707;SDS011;48769;51.624;5.886;2022-08-19T11:49:54;40.00;;;33.17;;
62707;SDS011;48769;51.624;5.886;2022-08-19T11:52:19;42.78;;;34.15;;
62707;SDS011;48769;51.624;5.886;2022-08-19T11:54:44;42.25;;;32.25;;
62707;SDS011;48769;51.624;5.886;2022-08-19T11:57:10;39.70;;;32.63;;
62707;SDS011;48769;51.624;5.886;2022-08-19T11:59:35;39.70;;;32.92;;
62707;SDS011;48769;51.624;5.886;2022-08-19T12:02:00;36.28;;;29.13;;
62707;SDS011;48769;51.624;5.886;2022-08-19T12:04:26;45.97;;;35.05;;
62707;SDS011;48769;51.624;5.886;2022-08-19T12:06:51;41.53;;;31.70;;
62707;SDS011;48769;51.624;5.886;2022-08-19T12:09:16;37.95;;;32.78;;
62707;SDS011;48769;51.624;5.886;2022-08-19T12:11:43;40.22;;;33.83;;
62707;SDS011;48769;51.624;5.886;2022-08-19T12:14:09;34.85;;;29.23;;
62707;SDS011;48769;51.624;5.886;2022-08-19T12:16:36;37.38;;;31.90;;
62707;SDS011;48769;51.624;5.886;2022-08-19T12:19:03;38.90;;;32.28;;
62707;SDS011;48769;51.624;5.886;2022-08-19T12:21:30;38.83;;;32.08;;
62707;SDS011;48769;51.624;5.886;2022-08-19T12:23:57;42.55;;;31.90;;
62707;SDS011;48769;51.624;5.886;2022-08-19T12:26:24;38.35;;;30.83;;
62707;SDS011;48769;51.624;5.886;2022-08-19T12:28:51;33.08;;;26.55;;
62707;SDS011;48769;51.624;5.886;2022-08-19T12:31:16;36.28;;;28.08;;
62707;SDS011;48769;51.624;5.886;2022-08-19T12:33:42;32.05;;;27.23;;
62707;SDS011;48769;51.624;5.886;2022-08-19T12:36:09;40.70;;;33.45;;
62707;SDS011;48769;51.624;5.886;2022-08-19T12:38:38;39.13;;;30.67;;
62707;SDS011;48769;51.624;5.886;2022-08-19T12:41:05;38.03;;;33.20;;
62707;SDS011;48769;51.624;5.886;2022-08-19T12:43:34;40.28;;;30.58;;
62707;SDS011;48769;51.624;5.886;2022-08-19T12:46:02;37.50;;;30.70;;
62707;SDS011;48769;51.624;5.886;2022-08-19T12:48:29;35.38;;;29.45;;
62707;SDS011;48769;51.624;5.886;2022-08-19T12:50:54;38.28;;;30.80;;
62707;SDS011;48769;51.624;5.886;2022-08-19T12:53:20;30.88;;;26.17;;
62707;SDS011;48769;51.624;5.886;2022-08-19T12:55:45;30.20;;;23.42;;
62707;SDS011;48769;51.624;5.886;2022-08-19T12:58:10;25.63;;;22.55;;
62707;SDS011;48769;51.624;5.886;2022-08-19T13:00:37;25.58;;;22.73;;
62707;SDS011;48769;51.624;5.886;2022-08-19T13:03:03;25.08;;;22.25;;
62707;SDS011;48769;51.624;5.886;2022-08-19T13:05:29;29.15;;;24.75;;
62707;SDS011;48769;51.624;5.886;2022-08-19T13:07:57;32.95;;;25.80;;
62707;SDS011;48769;51.624;5.886;2022-08-19T13:10:26;32.03;;;25.35;;
62707;SDS011;48769;51.624;5.886;2022-08-19T13:12:53;31.58;;;27.35;;
62707;SDS011;48769;51.624;5.886;2022-08-19T13:15:19;34.63;;;26.83;;
62707;SDS011;48769;51.624;5.886;2022-08-19T13:17:49;31.95;;;27.73;;
62707;SDS011;48769;51.624;5.886;2022-08-19T13:20:17;34.53;;;29.50;;
62707;SDS011;48769;51.624;5.886;2022-08-19T13:22:44;33.70;;;27.95;;
62707;SDS011;48769;51.624;5.886;2022-08-19T13:25:10;30.88;;;27.65;;
62707;SDS011;48769;51.624;5.886;2022-08-19T13:27:37;34.97;;;28.08;;
62707;SDS011;48769;51.624;5.886;2022-08-19T13:30:03;33.25;;;28.10;;
62707;SDS011;48769;51.624;5.886;2022-08-19T13:32:48;27.73;;;24.30;;
62707;SDS011;48769;51.624;5.886;2022-08-19T13:35:32;27.23;;;23.98;;
62707;SDS011;48769;51.624;5.886;2022-08-19T13:37:58;32.17;;;23.63;;
62707;SDS011;48769;51.624;5.886;2022-08-19T13:40:24;27.20;;;24.17;;
62707;SDS011;48769;51.624;5.886;2022-08-19T13:42:51;32.10;;;22.88;;
62707;SDS011;48769;51.624;5.886;2022-08-19T13:45:19;28.27;;;23.90;;
62707;SDS011;48769;51.624;5.886;2022-08-19T13:47:47;28.08;;;22.27;;
62707;SDS011;48769;51.624;5.886;2022-08-19T13:50:19;23.33;;;20.88;;
62707;SDS011;48769;51.624;5.886;2022-08-19T13:52:53;26.75;;;21.23;;
62707;SDS011;48769;51.624;5.886;2022-08-19T13:55:19;21.20;;;18.85;;
62707;SDS011;48769;51.624;5.886;2022-08-19T13:57:46;22.88;;;19.13;;
62707;SDS011;48769;51.624;5.886;2022-08-19T14:00:16;24.25;;;20.13;;
62707;SDS011;48769;51.624;5.886;2022-08-19T14:02:43;29.70;;;22.90;;
62707;SDS011;48769;51.624;5.886;2022-08-19T14:05:11;24.17;;;21.58;;
62707;SDS011;48769;51.624;5.886;2022-08-19T14:07:38;26.67;;;21.13;;
62707;SDS011;48769;51.624;5.886;2022-08-19T14:10:04;35.00;;;22.38;;
62707;SDS011;48769;51.624;5.886;2022-08-19T14:12:32;25.60;;;22.33;;
62707;SDS011;48769;51.624;5.886;2022-08-19T14:14:58;23.70;;;21.20;;
62707;SDS011;48769;51.624;5.886;2022-08-19T14:17:23;28.67;;;23.80;;
62707;SDS011;48769;51.624;5.886;2022-08-19T14:19:49;35.67;;;30.40;;
62707;SDS011;48769;51.624;5.886;2022-08-19T14:22:20;32.78;;;27.55;;
62707;SDS011;48769;51.624;5.886;2022-08-19T14:24:45;32.47;;;27.88;;
62707;SDS011;48769;51.624;5.886;2022-08-19T14:27:13;33.85;;;27.20;;
62707;SDS011;48769;51.624;5.886;2022-08-19T14:29:39;41.90;;;28.55;;
62707;SDS011;48769;51.624;5.886;2022-08-19T14:32:04;37.08;;;29.90;;